ハボローネ の空港の天気 - METARとTAF

セレツェカーマ国際空港 ( FBSK / GBE ) - ボツワナ ハボローネ
飛行場実況気象(Metar)
観測時間08/04 21:00 CAT (08/04 19:00 UTC)
風向・風速東南東 3m/s
視程10km以上
天気現象
なし
気温14℃
湿度26%
気圧1023hPa
METARFBSK 041900Z 12005KT CAVOK 14/M05 Q1023 NOSIG
過去の天気等 Google飛行場航空写真 Wunderground天気予報

過去48時間のMETAR

飛行場予報(TAF)
発表時間: 8/04 18:00 CAT (8/04 16:00 UTC)
予報対象時間: 4日20時 CAT ~ 6日2時 CAT
風向・風速北北西 3m/s
視程10km以上
なし
TAF FBSK 041600Z 0418/0524 33005KT CAVOK